createdAt,value
2022-11-06T00:00:31.511Z,98384.03
2022-11-06T00:03:01.625Z,98393.53
2022-11-06T00:05:48.528Z,98391.03
2022-11-06T00:08:25.677Z,98398.19
2022-11-06T00:10:53.116Z,98391.47
2022-11-06T00:13:20.596Z,98393.16
2022-11-06T00:15:47.762Z,98396.84
2022-11-06T00:18:15.558Z,98403.09
2022-11-06T00:20:43.053Z,98407.13
2022-11-06T00:23:10.617Z,98399.91
2022-11-06T00:25:41.318Z,98395.19
2022-11-06T00:28:09.561Z,98397.06
2022-11-06T00:30:37.512Z,98402.84
2022-11-06T00:33:05.018Z,98403.50
2022-11-06T00:35:32.172Z,98401.06
2022-11-06T00:37:59.701Z,98399.66
2022-11-06T00:40:26.840Z,98412.34
2022-11-06T00:42:55.838Z,98407.66
2022-11-06T00:45:24.794Z,98410.03
2022-11-06T00:47:52.606Z,98409.28
2022-11-06T00:50:19.876Z,98410.03
2022-11-06T00:52:47.342Z,98413.47
2022-11-06T00:55:14.706Z,98417.56
2022-11-06T00:57:42.192Z,98415.97
2022-11-06T01:00:11.322Z,98412.78
2022-11-06T01:02:39.316Z,98416.16
2022-11-06T01:05:07.088Z,98415.25
2022-11-06T01:07:34.540Z,98411.31
2022-11-06T01:10:01.787Z,98410.19
2022-11-06T01:12:33.038Z,98408.59
2022-11-06T01:15:00.370Z,98420.91
2022-11-06T01:17:29.020Z,98428.91
2022-11-06T01:19:56.156Z,98426.13
2022-11-06T01:22:23.645Z,98418.28
2022-11-06T01:24:51.079Z,98415.69
2022-11-06T01:27:27.372Z,98416.78
2022-11-06T01:29:55.749Z,98425.53
2022-11-06T01:32:23.219Z,98426.47
2022-11-06T01:34:51.962Z,98418.84
2022-11-06T01:37:19.513Z,98417.31
2022-11-06T01:39:48.589Z,98408.22
2022-11-06T01:42:19.250Z,98408.84
2022-11-06T01:45:08.052Z,98405.38
2022-11-06T01:47:35.618Z,98400.53
2022-11-06T01:50:09.571Z,98406.34
2022-11-06T01:52:37.693Z,98395.81
2022-11-06T01:55:19.670Z,98401.22
2022-11-06T01:57:48.587Z,98400.28
2022-11-06T02:00:16.340Z,98397.78
2022-11-06T02:02:44.223Z,98399.47
2022-11-06T02:05:11.724Z,98402.16
2022-11-06T02:07:41.712Z,98400.28
2022-11-06T02:10:09.698Z,98394.41
2022-11-06T02:12:54.768Z,98402.50
2022-11-06T02:15:43.172Z,98404.28
2022-11-06T02:18:16.859Z,98413.19
2022-11-06T02:21:19.727Z,98414.13
2022-11-06T02:24:31.379Z,98418.75
2022-11-06T02:27:33.887Z,98422.22
2022-11-06T02:30:13.815Z,98413.31
2022-11-06T02:32:59.728Z,98417.63
2022-11-06T02:35:34.943Z,98413.91
2022-11-06T02:38:16.914Z,98417.34
2022-11-06T02:40:58.109Z,98424.59
2022-11-06T02:43:55.654Z,98422.00
2022-11-06T02:46:46.717Z,98414.19
2022-11-06T02:49:29.599Z,98423.34
2022-11-06T02:52:06.821Z,98422.06
2022-11-06T02:54:41.235Z,98418.28
2022-11-06T02:57:15.711Z,98422.00
2022-11-06T03:00:02.803Z,98420.22
2022-11-06T03:02:56.192Z,98425.59
2022-11-06T03:06:03.984Z,98420.28
2022-11-06T03:08:43.185Z,98415.06
2022-11-06T03:11:22.689Z,98422.88
2022-11-06T03:13:53.074Z,98431.28
2022-11-06T03:16:42.716Z,98428.03
2022-11-06T03:19:45.607Z,98431.72
2022-11-06T03:22:41.975Z,98433.19
2022-11-06T03:25:42.085Z,98436.94
2022-11-06T03:28:20.588Z,98435.38
2022-11-06T03:30:58.702Z,98441.75
2022-11-06T03:33:50.899Z,98439.41
2022-11-06T03:36:25.410Z,98432.69
2022-11-06T03:39:05.471Z,98447.72
2022-11-06T03:41:48.214Z,98441.34
2022-11-06T03:44:22.767Z,98444.09
2022-11-06T03:47:01.852Z,98447.81
2022-11-06T03:49:42.249Z,98443.84
2022-11-06T03:52:18.367Z,98444.25
2022-11-06T03:55:01.710Z,98449.94
2022-11-06T03:57:47.949Z,98453.81
2022-11-06T04:00:17.200Z,98456.31
2022-11-06T04:02:53.086Z,98460.47
2022-11-06T04:05:24.719Z,98457.28
2022-11-06T04:08:15.240Z,98467.16
2022-11-06T04:11:08.933Z,98454.63
2022-11-06T04:13:58.197Z,98460.75
2022-11-06T04:16:40.076Z,98463.97
2022-11-06T04:19:18.926Z,98463.00
2022-11-06T04:22:13.687Z,98468.63
2022-11-06T04:25:52.959Z,98472.63
2022-11-06T04:28:33.746Z,98473.00
2022-11-06T04:31:23.777Z,98461.59
2022-11-06T04:34:04.755Z,98463.09
2022-11-06T04:36:47.516Z,98469.00
2022-11-06T04:40:28.438Z,98465.22
2022-11-06T04:43:30.267Z,98459.66
2022-11-06T04:46:01.010Z,98463.09
2022-11-06T04:48:30.473Z,98463.09
2022-11-06T04:51:06.194Z,98463.88
2022-11-06T04:53:35.389Z,98462.44
2022-11-06T04:56:11.742Z,98460.59
2022-11-06T04:58:39.740Z,98459.84
2022-11-06T05:01:07.328Z,98463.94
2022-11-06T05:03:34.950Z,98465.63
2022-11-06T05:06:03.317Z,98452.63
2022-11-06T05:08:30.930Z,98453.31
2022-11-06T05:10:58.084Z,98457.38
2022-11-06T05:13:25.534Z,98456.19
2022-11-06T05:15:57.909Z,98458.34
2022-11-06T05:18:27.521Z,98460.38
2022-11-06T05:21:15.017Z,98465.88
2022-11-06T05:23:43.023Z,98454.84
2022-11-06T05:26:10.308Z,98466.03
2022-11-06T05:28:37.810Z,98469.47
2022-11-06T05:31:05.835Z,98475.50
2022-11-06T05:33:33.470Z,98482.84
2022-11-06T05:36:05.924Z,98490.19
2022-11-06T05:38:34.064Z,98485.00
2022-11-06T05:41:01.327Z,98493.81
2022-11-06T05:43:29.046Z,98487.97
2022-11-06T05:45:56.323Z,98487.78
2022-11-06T05:48:23.848Z,98488.97
2022-11-06T05:50:51.075Z,98497.84
2022-11-06T05:53:19.213Z,98496.06
2022-11-06T05:55:47.341Z,98507.25
2022-11-06T05:58:15.536Z,98507.25
2022-11-06T06:00:42.974Z,98505.72
2022-11-06T06:03:11.286Z,98504.41
2022-11-06T06:05:38.575Z,98500.44
2022-11-06T06:08:06.836Z,98497.69
2022-11-06T06:10:34.097Z,98495.59
2022-11-06T06:13:01.565Z,98491.03
2022-11-06T06:15:28.786Z,98494.66
2022-11-06T06:17:58.053Z,98497.81
2022-11-06T06:20:25.645Z,98497.94
2022-11-06T06:22:58.078Z,98501.69
2022-11-06T06:25:26.701Z,98495.66
2022-11-06T06:27:55.152Z,98492.41
2022-11-06T06:30:23.484Z,98497.72
2022-11-06T06:32:51.935Z,98499.72
2022-11-06T06:35:19.283Z,98503.81
2022-11-06T06:37:54.613Z,98508.47
2022-11-06T06:40:23.227Z,98513.66
2022-11-06T06:42:50.724Z,98512.97
2022-11-06T06:45:17.966Z,98515.53
2022-11-06T06:47:45.414Z,98515.75
2022-11-06T06:50:12.714Z,98522.31
2022-11-06T06:52:40.122Z,98524.06
2022-11-06T06:55:07.736Z,98522.97
2022-11-06T06:57:35.210Z,98523.91
2022-11-06T07:00:02.478Z,98524.84
2022-11-06T07:02:30.063Z,98531.28
2022-11-06T07:04:57.377Z,98530.53
2022-11-06T07:07:24.871Z,98527.63
2022-11-06T07:09:52.420Z,98519.34
2022-11-06T07:12:19.941Z,98524.56
2022-11-06T07:14:47.085Z,98530.00
2022-11-06T07:17:14.645Z,98522.56
2022-11-06T07:19:41.808Z,98528.50
2022-11-06T07:22:09.291Z,98524.69
2022-11-06T07:24:36.460Z,98531.53
2022-11-06T07:27:04.021Z,98534.00
2022-11-06T07:29:31.252Z,98531.25
2022-11-06T07:31:58.772Z,98529.97
2022-11-06T07:34:25.913Z,98529.06
2022-11-06T07:36:53.435Z,98536.16
2022-11-06T07:39:20.592Z,98526.75
2022-11-06T07:41:48.024Z,98530.53
2022-11-06T07:44:15.215Z,98524.66
2022-11-06T07:46:43.880Z,98523.50
2022-11-06T07:49:11.229Z,98530.78
2022-11-06T07:51:39.174Z,98529.81
2022-11-06T07:54:06.328Z,98532.56
2022-11-06T07:56:34.137Z,98531.69
2022-11-06T07:59:01.408Z,98523.38
2022-11-06T08:01:28.982Z,98525.13
2022-11-06T08:03:56.233Z,98525.56
2022-11-06T08:06:23.671Z,98527.16
2022-11-06T08:08:53.765Z,98530.72
2022-11-06T08:11:25.271Z,98531.81
2022-11-06T08:13:52.416Z,98529.25
2022-11-06T08:16:19.912Z,98530.63
2022-11-06T08:18:47.046Z,98526.28
2022-11-06T08:21:14.543Z,98526.31
2022-11-06T08:23:41.692Z,98526.44
2022-11-06T08:26:10.657Z,98520.03
2022-11-06T08:28:38.080Z,98524.88
2022-11-06T08:31:07.603Z,98516.91
2022-11-06T08:33:38.655Z,98524.03
2022-11-06T08:36:09.261Z,98518.09
2022-11-06T08:38:36.962Z,98517.25
2022-11-06T08:41:11.334Z,98517.94
2022-11-06T08:43:39.711Z,98510.44
2022-11-06T08:46:09.607Z,98524.38
2022-11-06T08:48:37.433Z,98526.75
2022-11-06T08:51:06.414Z,98521.59
2022-11-06T08:53:34.595Z,98526.22
2022-11-06T08:56:05.814Z,98530.31
2022-11-06T08:58:33.260Z,98523.00
2022-11-06T09:01:00.758Z,98527.75
2022-11-06T09:03:27.976Z,98529.06
2022-11-06T09:05:55.507Z,98526.56
2022-11-06T09:08:24.226Z,98529.31
2022-11-06T09:10:57.261Z,98523.03
2022-11-06T09:13:26.411Z,98534.00
2022-11-06T09:15:53.944Z,98530.66
2022-11-06T09:18:21.120Z,98529.00
2022-11-06T09:20:48.668Z,98532.19
2022-11-06T09:23:17.300Z,98531.31
2022-11-06T09:25:44.886Z,98526.13
2022-11-06T09:28:12.062Z,98528.88
2022-11-06T09:30:39.626Z,98522.56
2022-11-06T09:33:12.216Z,98526.41
2022-11-06T09:35:41.746Z,98523.03
2022-11-06T09:38:12.905Z,98517.00
2022-11-06T09:40:53.700Z,98516.19
2022-11-06T09:46:44.494Z,98497.63
2022-11-06T09:49:22.951Z,98496.13
2022-11-06T09:52:11.083Z,98495.06
2022-11-06T09:54:56.271Z,98496.13
2022-11-06T09:57:37.983Z,98495.06
2022-11-06T10:00:11.667Z,98500.59
2022-11-06T10:02:57.908Z,98491.84
2022-11-06T10:05:38.305Z,98488.06
2022-11-06T10:08:27.142Z,98483.78
2022-11-06T10:11:15.645Z,98485.94
2022-11-06T10:14:07.360Z,98484.78
2022-11-06T10:17:01.619Z,98481.38
2022-11-06T10:20:10.943Z,98474.59
2022-11-06T10:23:03.433Z,98470.03
2022-11-06T10:26:13.994Z,98476.19
2022-11-06T10:29:34.046Z,98465.00
2022-11-06T10:32:38.609Z,98467.97
2022-11-06T10:35:30.705Z,98462.03
2022-11-06T10:38:13.985Z,98450.88
2022-11-06T10:40:49.021Z,98455.00
2022-11-06T10:43:25.095Z,98447.59
2022-11-06T10:46:19.045Z,98442.69
2022-11-06T10:49:21.027Z,98435.06
2022-11-06T10:52:26.417Z,98436.50
2022-11-06T10:55:36.934Z,98431.88
2022-11-06T10:58:12.060Z,98423.75
2022-11-06T11:00:40.339Z,98415.69
2022-11-06T11:03:32.938Z,98413.38
2022-11-06T11:06:01.854Z,98414.38
2022-11-06T11:08:36.194Z,98416.28
2022-11-06T11:11:05.235Z,98413.00
2022-11-06T11:13:33.493Z,98402.53
2022-11-06T11:16:03.485Z,98405.25
2022-11-06T11:18:34.503Z,98401.72
2022-11-06T11:21:18.840Z,98396.28
2022-11-06T11:24:01.414Z,98386.75
2022-11-06T11:26:32.943Z,98386.91
2022-11-06T11:29:16.291Z,98385.09
2022-11-06T11:31:51.858Z,98388.53
2022-11-06T11:34:27.587Z,98381.44
2022-11-06T11:37:06.075Z,98385.72
2022-11-06T11:39:44.087Z,98372.81
2022-11-06T11:42:32.652Z,98367.50
2022-11-06T11:45:09.019Z,98362.75
2022-11-06T11:47:42.690Z,98370.97
2022-11-06T11:50:31.651Z,98359.72
2022-11-06T11:53:05.751Z,98366.94
2022-11-06T11:55:43.495Z,98365.00
2022-11-06T11:58:28.150Z,98369.75
2022-11-06T12:01:04.472Z,98367.53
2022-11-06T12:03:42.132Z,98362.09
2022-11-06T12:06:18.645Z,98355.72
2022-11-06T12:08:54.175Z,98359.56
2022-11-06T12:11:27.329Z,98352.41
2022-11-06T12:14:37.413Z,98347.75
2022-11-06T12:17:21.082Z,98352.06
2022-11-06T12:19:58.231Z,98347.66
2022-11-06T12:22:37.985Z,98342.03
2022-11-06T12:25:39.700Z,98349.34
2022-11-06T12:28:19.135Z,98346.91
2022-11-06T12:30:57.481Z,98340.69
2022-11-06T12:34:04.067Z,98335.91
2022-11-06T12:36:22.495Z,98341.13
2022-11-06T12:39:04.180Z,98328.28
2022-11-06T12:41:40.970Z,98333.56
2022-11-06T12:44:16.214Z,98328.69
2022-11-06T12:47:26.585Z,98329.59
2022-11-06T12:50:12.250Z,98329.66
2022-11-06T12:53:09.094Z,98337.34
2022-11-06T12:55:56.747Z,98338.97
2022-11-06T12:58:56.368Z,98329.38
2022-11-06T13:01:57.308Z,98318.00
2022-11-06T13:05:11.593Z,98319.25
2022-11-06T13:08:16.516Z,98322.84
2022-11-06T13:10:56.334Z,98321.84
2022-11-06T13:14:12.310Z,98327.28
2022-11-06T13:17:09.488Z,98317.09
2022-11-06T13:19:55.211Z,98310.44
2022-11-06T13:22:29.897Z,98323.06
2022-11-06T13:25:52.933Z,98311.84
2022-11-06T13:28:42.883Z,98311.53
2022-11-06T13:31:16.665Z,98312.53
2022-11-06T13:33:59.767Z,98310.38
2022-11-06T13:36:29.964Z,98299.66
2022-11-06T13:39:15.772Z,98300.34
2022-11-06T13:41:42.938Z,98300.41
2022-11-06T13:44:18.601Z,98288.72
2022-11-06T13:47:21.644Z,98285.31
2022-11-06T13:50:03.903Z,98277.09
2022-11-06T13:52:52.017Z,98279.47
2022-11-06T13:56:04.368Z,98263.50
2022-11-06T13:59:09.712Z,98266.16
2022-11-06T14:02:09.771Z,98258.34
2022-11-06T14:05:00.989Z,98265.78
2022-11-06T14:07:32.565Z,98268.97
2022-11-06T14:10:00.337Z,98265.00
2022-11-06T14:12:28.610Z,98267.22
2022-11-06T14:15:24.765Z,98260.97
2022-11-06T14:18:01.993Z,98266.16
2022-11-06T14:20:39.332Z,98271.44
2022-11-06T14:23:31.499Z,98263.88
2022-11-06T14:26:12.468Z,98268.41
2022-11-06T14:28:44.637Z,98264.03
2022-11-06T14:31:50.222Z,98266.22
2022-11-06T14:34:38.721Z,98266.47
2022-11-06T14:37:31.189Z,98265.81
2022-11-06T14:39:58.844Z,98273.09
2022-11-06T14:42:34.473Z,98276.41
2022-11-06T14:45:11.979Z,98278.03
2022-11-06T14:48:00.181Z,98274.78
2022-11-06T14:50:41.043Z,98282.81
2022-11-06T14:53:23.381Z,98272.09
2022-11-06T14:56:09.741Z,98270.78
2022-11-06T14:58:47.126Z,98280.72
2022-11-06T15:01:24.734Z,98275.94
2022-11-06T15:03:57.960Z,98270.84
2022-11-06T15:06:34.168Z,98277.94
2022-11-06T15:09:14.145Z,98274.53
2022-11-06T15:11:47.720Z,98271.09
2022-11-06T15:14:15.231Z,98277.91
2022-11-06T15:16:45.434Z,98273.44
2022-11-06T15:19:26.613Z,98274.78
2022-11-06T15:22:21.000Z,98264.16
2022-11-06T15:24:55.721Z,98265.81
2022-11-06T15:27:30.698Z,98268.56
2022-11-06T15:30:03.913Z,98270.19
2022-11-06T15:32:38.349Z,98266.91
2022-11-06T15:35:16.080Z,98261.97
2022-11-06T15:37:56.561Z,98260.56
2022-11-06T15:40:38.401Z,98255.59
2022-11-06T15:43:25.684Z,98256.56
2022-11-06T15:46:11.267Z,98256.16
2022-11-06T15:48:39.422Z,98247.72
2022-11-06T15:51:40.413Z,98249.53
2022-11-06T15:54:14.620Z,98251.00
2022-11-06T15:56:42.522Z,98248.19
2022-11-06T15:59:17.129Z,98240.78
2022-11-06T16:01:49.546Z,98246.75
2022-11-06T16:04:25.297Z,98249.78
2022-11-06T16:06:55.237Z,98243.50
2022-11-06T16:09:26.796Z,98243.59
2022-11-06T16:11:55.641Z,98250.81
2022-11-06T16:14:23.597Z,98253.59
2022-11-06T16:16:54.509Z,98248.50
2022-11-06T16:19:36.928Z,98248.97
2022-11-06T16:22:10.119Z,98249.78
2022-11-06T16:24:53.571Z,98246.56
2022-11-06T16:27:23.605Z,98244.59
2022-11-06T16:30:03.457Z,98249.00
2022-11-06T16:32:39.967Z,98240.25
2022-11-06T16:35:32.134Z,98232.81
2022-11-06T16:38:41.978Z,98243.66
2022-11-06T16:41:37.356Z,98241.09
2022-11-06T16:44:44.005Z,98235.56
2022-11-06T16:47:12.901Z,98234.66
2022-11-06T16:49:53.871Z,98226.38
2022-11-06T16:52:33.049Z,98226.06
2022-11-06T16:55:17.043Z,98226.38
2022-11-06T16:57:55.287Z,98221.44
2022-11-06T17:00:33.476Z,98215.69
2022-11-06T17:03:20.103Z,98210.09
2022-11-06T17:06:23.676Z,98211.63
2022-11-06T17:09:21.675Z,98211.06
2022-11-06T17:11:58.115Z,98207.16
2022-11-06T17:14:27.395Z,98205.69
2022-11-06T17:17:01.289Z,98201.41
2022-11-06T17:19:30.263Z,98192.56
2022-11-06T17:21:58.242Z,98199.63
2022-11-06T17:24:41.503Z,98198.22
2022-11-06T17:27:08.929Z,98202.72
2022-11-06T17:29:36.734Z,98201.69
2022-11-06T17:32:04.334Z,98199.16
2022-11-06T17:34:31.793Z,98197.13
2022-11-06T17:36:59.107Z,98209.69
2022-11-06T17:39:26.907Z,98204.56
2022-11-06T17:41:54.616Z,98208.09
2022-11-06T17:44:22.500Z,98208.00
2022-11-06T17:46:50.009Z,98210.81
2022-11-06T17:49:18.625Z,98206.91
2022-11-06T17:51:53.660Z,98202.53
2022-11-06T17:54:26.310Z,98201.44
2022-11-06T17:56:55.951Z,98204.56
2022-11-06T17:59:26.580Z,98198.88
2022-11-06T18:01:55.357Z,98206.16
2022-11-06T18:04:26.590Z,98201.78
2022-11-06T18:06:55.031Z,98199.91
2022-11-06T18:09:24.216Z,98197.41
2022-11-06T18:11:54.363Z,98204.56
2022-11-06T18:14:24.758Z,98192.38
2022-11-06T18:16:53.140Z,98201.38
2022-11-06T18:19:24.651Z,98198.34
2022-11-06T18:21:52.441Z,98194.50
2022-11-06T18:24:20.212Z,98184.63
2022-11-06T18:26:47.570Z,98187.78
2022-11-06T18:29:15.574Z,98191.91
2022-11-06T18:31:43.049Z,98189.84
2022-11-06T18:34:19.778Z,98181.84
2022-11-06T18:36:50.656Z,98187.16
2022-11-06T18:39:19.347Z,98180.47
2022-11-06T18:41:46.762Z,98185.31
2022-11-06T18:44:17.188Z,98173.50
2022-11-06T18:46:46.597Z,98174.44
2022-11-06T18:49:15.062Z,98173.59
2022-11-06T18:51:42.421Z,98163.81
2022-11-06T18:54:12.181Z,98173.59
2022-11-06T18:56:39.731Z,98169.69
2022-11-06T18:59:14.066Z,98160.13
2022-11-06T19:01:41.430Z,98153.03
2022-11-06T19:04:10.915Z,98159.38
2022-11-06T19:06:40.245Z,98148.41
2022-11-06T19:09:09.700Z,98142.09
2022-11-06T19:11:37.264Z,98144.50
2022-11-06T19:14:05.105Z,98146.16
2022-11-06T19:16:32.307Z,98144.66
2022-11-06T19:19:05.834Z,98153.25
2022-11-06T19:21:34.064Z,98139.63
2022-11-06T19:24:05.661Z,98137.72
2022-11-06T19:26:37.666Z,98138.88
2022-11-06T19:29:08.641Z,98140.06
2022-11-06T19:31:37.793Z,98132.16
2022-11-06T19:34:08.270Z,98132.03
2022-11-06T19:36:36.032Z,98126.31
2022-11-06T19:39:04.695Z,98132.56
2022-11-06T19:41:31.906Z,98135.31
2022-11-06T19:43:59.697Z,98130.13
2022-11-06T19:46:32.379Z,98126.81
2022-11-06T19:49:07.518Z,98128.69
2022-11-06T19:51:37.642Z,98131.56
2022-11-06T19:54:10.055Z,98127.88
2022-11-06T19:57:27.012Z,98127.75
2022-11-06T19:59:25.802Z,98127.41
2022-11-06T20:01:53.294Z,98121.16
2022-11-06T20:04:20.978Z,98122.94
2022-11-06T20:06:48.248Z,98127.88
2022-11-06T20:09:15.865Z,98135.53
2022-11-06T20:11:43.195Z,98135.84
2022-11-06T20:14:10.688Z,98137.25
2022-11-06T20:16:38.100Z,98144.06
2022-11-06T20:19:05.681Z,98136.41
2022-11-06T20:21:33.131Z,98151.50
2022-11-06T20:24:00.828Z,98143.94
2022-11-06T20:26:28.216Z,98152.31
2022-11-06T20:28:55.676Z,98147.72
2022-11-06T20:31:23.473Z,98142.72
2022-11-06T20:33:52.249Z,98140.59
2022-11-06T20:36:26.638Z,98143.38
2022-11-06T20:38:58.846Z,98142.84
2022-11-06T20:41:28.019Z,98141.91
2022-11-06T20:43:56.490Z,98132.78
2022-11-06T20:46:25.208Z,98134.84
2022-11-06T20:48:53.266Z,98121.81
2022-11-06T20:51:29.398Z,98127.56
2022-11-06T20:53:56.921Z,98123.84
2022-11-06T20:56:27.352Z,98128.94
2022-11-06T20:58:56.790Z,98124.34
2022-11-06T21:01:27.303Z,98121.00
2022-11-06T21:03:57.501Z,98123.03
2022-11-06T21:06:27.665Z,98125.34
2022-11-06T21:08:56.397Z,98124.09
2022-11-06T21:11:27.341Z,98139.94
2022-11-06T21:13:55.644Z,98137.63
2022-11-06T21:16:34.827Z,98134.72
2022-11-06T21:19:04.271Z,98139.00
2022-11-06T21:21:35.064Z,98133.59
2022-11-06T21:24:04.777Z,98128.25
2022-11-06T21:26:37.025Z,98125.13
2022-11-06T21:29:08.735Z,98125.84
2022-11-06T21:31:36.544Z,98121.28
2022-11-06T21:34:05.676Z,98123.50
2022-11-06T21:36:37.692Z,98120.72
2022-11-06T21:39:13.944Z,98112.47
2022-11-06T21:41:41.870Z,98111.94
2022-11-06T21:44:16.104Z,98095.25
2022-11-06T21:46:45.681Z,98091.09
2022-11-06T21:49:14.372Z,98105.31
2022-11-06T21:51:41.707Z,98096.06
2022-11-06T21:54:30.689Z,98102.13
2022-11-06T21:56:58.080Z,98092.53
2022-11-06T21:59:28.855Z,98092.94
2022-11-06T22:01:56.503Z,98084.91
2022-11-06T22:04:24.281Z,98079.88
2022-11-06T22:06:54.900Z,98077.38
2022-11-06T22:09:25.597Z,98070.25
2022-11-06T22:11:53.531Z,98070.97
2022-11-06T22:14:21.000Z,98080.38
2022-11-06T22:16:48.594Z,98070.56
2022-11-06T22:19:17.835Z,98075.84
2022-11-06T22:21:45.407Z,98072.84
2022-11-06T22:24:14.784Z,98079.22
2022-11-06T22:26:42.639Z,98072.25
2022-11-06T22:29:14.123Z,98067.75
2022-11-06T22:31:41.680Z,98066.25
2022-11-06T22:34:11.529Z,98071.69
2022-11-06T22:36:39.621Z,98065.63
2022-11-06T22:39:10.037Z,98068.25
2022-11-06T22:41:38.269Z,98060.75
2022-11-06T22:44:06.680Z,98065.13
2022-11-06T22:46:34.291Z,98066.59
2022-11-06T22:49:01.966Z,98061.69
2022-11-06T22:51:31.502Z,98067.75
2022-11-06T22:54:00.676Z,98062.31
2022-11-06T22:56:30.330Z,98060.13
2022-11-06T22:59:05.276Z,98066.47
2022-11-06T23:01:37.461Z,98062.19
2022-11-06T23:04:16.287Z,98060.81
2022-11-06T23:06:46.518Z,98057.56
2022-11-06T23:09:14.736Z,98057.75
2022-11-06T23:11:45.611Z,98059.19
2022-11-06T23:14:12.862Z,98061.69
2022-11-06T23:17:00.420Z,98061.91
2022-11-06T23:19:31.676Z,98056.91
2022-11-06T23:22:18.049Z,98049.69
2022-11-06T23:24:45.968Z,98051.63
2022-11-06T23:27:13.615Z,98054.06
2022-11-06T23:29:40.836Z,98054.34
2022-11-06T23:32:08.384Z,98044.00
2022-11-06T23:34:35.713Z,98053.22
2022-11-06T23:37:03.137Z,98050.91
2022-11-06T23:39:30.404Z,98052.88
2022-11-06T23:41:57.881Z,98060.97
2022-11-06T23:44:43.290Z,98062.22
2022-11-06T23:47:10.746Z,98052.03
2022-11-06T23:49:37.996Z,98058.44
2022-11-06T23:52:05.566Z,98057.75
2022-11-06T23:54:32.794Z,98061.28
2022-11-06T23:57:00.240Z,98058.84
2022-11-06T23:59:27.492Z,98061.69
